Time;durP1;ratioP1;P1;durP2;ratioP2;P2;SDS_P1;SDS_P2;PMS_P1;PMS_P2;Temp;Humidity;BMP_temperature;BMP_pressure;BME280_temperature;BME280_humidity;BME280_pressure;Samples;Min_cycle;Max_cycle;Signal;HPM_P1;HPM_P2
2023/07/04 00:01:05;;;;;;;14.07;10.38;;;;;;;20.41;86.00;94792.25;4936063;29;20615;-86
2023/07/04 00:03:31;;;;;;;18.00;10.00;;;;;;;20.67;86.37;94835.75;4935800;29;20436;-87
2023/07/04 00:05:57;;;;;;;19.50;9.85;;;;;;;20.67;86.04;94835.75;4936080;29;20571;-85
2023/07/04 00:08:28;;;;;;;17.75;9.10;;;;;;;20.53;85.88;94835.53;4936173;29;20239;-84
2023/07/04 00:10:57;;;;;;;18.80;8.80;;;;;;;20.53;85.67;94832.88;4934627;29;20927;-84
2023/07/04 00:13:23;;;;;;;15.73;7.85;;;;;;;20.49;86.09;94817.66;4950463;29;20612;-84
2023/07/04 00:15:51;;;;;;;15.45;8.88;;;;;;;20.55;85.76;94829.94;4949870;28;20186;-84
2023/07/04 00:18:20;;;;;;;14.75;8.75;;;;;;;20.35;86.02;94801.38;4935799;29;20182;-84
2023/07/04 00:20:47;;;;;;;18.85;8.98;;;;;;;20.56;86.13;94837.69;4935629;29;20944;-84
2023/07/04 00:23:13;;;;;;;16.87;9.50;;;;;;;20.54;86.15;94836.34;4935795;29;20348;-84
2023/07/04 00:25:38;;;;;;;14.55;8.55;;;;;;;20.28;86.55;94793.63;4950438;29;20214;-84
2023/07/04 00:28:05;;;;;;;16.75;9.15;;;;;;;20.27;86.45;94799.22;4935187;29;20436;-84
2023/07/04 00:30:33;;;;;;;15.70;9.70;;;;;;;20.46;86.63;94829.69;4935232;29;20479;-84
2023/07/04 00:32:59;;;;;;;16.70;9.00;;;;;;;20.23;86.52;94777.59;4935359;29;21004;-85
2023/07/04 00:35:24;;;;;;;19.50;9.63;;;;;;;20.34;86.43;94802.44;4935505;29;20503;-83
2023/07/04 00:37:49;;;;;;;16.27;9.70;;;;;;;19.84;86.16;94734.69;4935038;29;20434;-84
2023/07/04 00:40:15;;;;;;;12.18;8.27;;;;;;;19.96;87.35;94791.31;4935892;29;20254;-84
2023/07/04 00:42:41;;;;;;;13.93;8.87;;;;;;;20.15;87.67;94820.13;4935324;29;20416;-83
2023/07/04 00:45:21;;;;;;;14.05;8.68;;;;;;;19.87;88.13;94776.91;4935459;29;20722;-84
2023/07/04 00:47:53;;;;;;;11.82;8.02;;;;;;;20.25;87.28;94828.09;4935259;29;20190;-84
2023/07/04 00:50:31;;;;;;;13.40;8.65;;;;;;;20.09;87.54;94795.28;4935227;29;20244;-84
2023/07/04 00:53:02;;;;;;;14.48;10.00;;;;;;;19.95;87.77;94772.88;4934669;29;20464;-84
2023/07/04 00:55:29;;;;;;;10.75;8.18;;;;;;;20.29;87.12;94816.59;4949931;29;20174;-84
2023/07/04 00:57:55;;;;;;;16.05;8.60;;;;;;;20.26;87.14;94821.69;4933970;29;21019;-84
2023/07/04 01:00:23;;;;;;;17.33;8.23;;;;;;;20.25;87.05;94823.56;4935454;29;20151;-84
2023/07/04 01:03:01;;;;;;;15.90;9.63;;;;;;;20.25;87.53;94828.91;4949279;29;20409;-84
2023/07/04 01:06:06;;;;;;;17.38;9.98;;;;;;;20.30;87.21;94830.78;4934630;29;20455;-84
2023/07/04 01:08:38;;;;;;;16.98;9.02;;;;;;;20.17;86.82;94800.06;4935206;29;20223;-84
2023/07/04 01:11:09;;;;;;;13.77;8.90;;;;;;;20.25;87.04;94820.88;4933298;29;20409;-84
2023/07/04 01:13:43;;;;;;;15.45;10.10;;;;;;;20.11;87.05;94803.03;4933782;29;20551;-84
2023/07/04 01:16:12;;;;;;;15.32;8.98;;;;;;;20.27;86.78;94831.31;4934943;29;20628;-84
2023/07/04 01:18:41;;;;;;;15.02;9.40;;;;;;;20.28;86.41;94828.38;4934892;29;20251;-84
2023/07/04 01:21:08;;;;;;;11.73;8.75;;;;;;;20.28;86.13;94827.56;4934885;29;20151;-84
2023/07/04 01:24:01;;;;;;;15.93;8.80;;;;;;;20.08;86.34;94792.88;4934790;29;20177;-84
2023/07/04 01:26:32;;;;;;;20.65;9.15;;;;;;;20.23;85.99;94820.38;4934920;29;20163;-84
2023/07/04 01:29:00;;;;;;;17.35;9.07;;;;;;;20.18;86.70;94823.06;4933525;29;20230;-84
2023/07/04 01:31:29;;;;;;;16.55;9.40;;;;;;;20.11;86.70;94819.88;4935364;29;20168;-83
2023/07/04 01:33:56;;;;;;;22.48;10.98;;;;;;;20.07;87.07;94826.81;4934706;29;20174;-83
2023/07/04 01:36:24;;;;;;;17.05;10.05;;;;;;;19.84;86.86;94792.66;4935303;29;20607;-82
2023/07/04 01:38:50;;;;;;;20.60;10.52;;;;;;;19.96;87.37;94825.25;4934662;29;20175;-84
2023/07/04 01:41:16;;;;;;;16.85;10.95;;;;;;;19.74;87.68;94787.31;4934987;29;20171;-83
2023/07/04 01:43:48;;;;;;;17.85;10.07;;;;;;;19.97;87.78;94821.50;4934954;29;20246;-84
2023/07/04 01:46:14;;;;;;;21.83;10.93;;;;;;;19.94;87.61;94822.84;4933425;29;20168;-84
2023/07/04 01:48:39;;;;;;;20.98;10.88;;;;;;;19.70;87.34;94783.59;4935174;29;20174;-85
2023/07/04 01:51:04;;;;;;;20.65;12.07;;;;;;;19.69;87.82;94790.00;4934635;29;20258;-84
2023/07/04 01:53:31;;;;;;;23.20;11.90;;;;;;;19.74;87.40;94812.16;4934743;29;20294;-84
2023/07/04 01:55:56;;;;;;;20.30;10.38;;;;;;;19.43;87.39;94765.97;4935093;29;20152;-84
2023/07/04 01:58:21;;;;;;;20.40;10.23;;;;;;;19.84;87.46;94833.53;4934553;29;20174;-85
2023/07/04 02:00:47;;;;;;;19.37;11.17;;;;;;;19.63;87.49;94807.13;4933749;29;20416;-84
2023/07/04 02:03:12;;;;;;;19.00;9.90;;;;;;;19.73;87.90;94817.78;4934492;29;20164;-84
2023/07/04 02:05:38;;;;;;;18.92;10.23;;;;;;;19.71;87.49;94822.59;4934779;29;20167;-84
2023/07/04 02:08:03;;;;;;;20.20;11.17;;;;;;;19.70;87.63;94821.00;4933967;29;20544;-84
2023/07/04 02:10:29;;;;;;;14.20;9.52;;;;;;;19.51;87.34;94802.84;4934173;29;20190;-84
2023/07/04 02:12:54;;;;;;;17.40;10.82;;;;;;;19.67;87.42;94832.22;4934240;29;20191;-84
2023/07/04 02:15:20;;;;;;;16.70;9.93;;;;;;;19.64;87.65;94830.88;4934166;29;20183;-84
2023/07/04 02:17:47;;;;;;;16.83;9.85;;;;;;;19.42;87.51;94811.63;4934322;29;20197;-84
2023/07/04 02:20:12;;;;;;;14.30;9.07;;;;;;;19.33;88.20;94795.31;4934673;29;20235;-84
2023/07/04 02:22:41;;;;;;;17.25;9.68;;;;;;;19.34;87.92;94796.94;4934319;29;20601;-84
2023/07/04 02:25:07;;;;;;;17.23;9.48;;;;;;;19.55;88.04;94841.28;4934377;29;20164;-84
2023/07/04 02:27:32;;;;;;;17.42;10.73;;;;;;;19.52;88.22;94835.69;4934466;29;20715;-84
2023/07/04 02:29:58;;;;;;;19.02;10.70;;;;;;;19.49;88.08;94828.19;4948986;29;20285;-84
2023/07/04 02:32:23;;;;;;;32.60;22.17;;;;;;;19.44;88.17;94828.97;4933942;29;20195;-84
2023/07/04 02:34:48;;;;;;;38.75;27.00;;;;;;;19.52;88.31;94827.69;4934215;29;20171;-84
2023/07/04 02:37:14;;;;;;;52.95;39.22;;;;;;;19.53;87.97;94826.63;4932923;29;20171;-84
2023/07/04 02:39:40;;;;;;;58.33;37.92;;;;;;;19.47;88.20;94828.47;4937019;29;20225;-84
2023/07/04 02:42:06;;;;;;;52.17;38.83;;;;;;;19.20;88.58;94790.50;4937861;29;20673;-84
2023/07/04 02:44:33;;;;;;;48.65;38.17;;;;;;;19.49;88.63;94830.88;4936379;29;20171;-84
2023/07/04 02:46:58;;;;;;;52.72;40.15;;;;;;;19.44;88.45;94823.63;4936337;29;20706;-84
2023/07/04 02:49:23;;;;;;;52.95;39.20;;;;;;;19.16;88.66;94790.25;4937493;29;20262;-84
2023/07/04 02:51:49;;;;;;;51.25;37.47;;;;;;;19.33;88.07;94806.00;4952064;29;20175;-83
2023/07/04 02:54:17;;;;;;;49.50;35.65;;;;;;;19.07;88.27;94770.50;4937369;29;20175;-83
2023/07/04 02:56:43;;;;;;;48.13;35.63;;;;;;;19.38;88.85;94829.22;4951982;29;20190;-83
2023/07/04 02:59:09;;;;;;;40.35;31.98;;;;;;;18.88;88.64;94742.72;4937231;29;20206;-83
2023/07/04 03:01:34;;;;;;;35.90;27.50;;;;;;;19.33;88.68;94834.56;4936703;29;20515;-84
2023/07/04 03:04:00;;;;;;;34.05;23.90;;;;;;;19.07;89.05;94791.84;4936027;29;20409;-84
2023/07/04 03:06:25;;;;;;;29.25;21.30;;;;;;;19.24;88.83;94826.28;4935947;29;20642;-84
2023/07/04 03:08:51;;;;;;;35.55;25.85;;;;;;;19.28;89.63;94835.38;4934352;29;20971;-84
2023/07/04 03:11:17;;;;;;;24.65;19.65;;;;;;;18.99;89.01;94783.56;4936528;29;20254;-84
2023/07/04 03:13:43;;;;;;;18.20;11.98;;;;;;;19.10;88.75;94804.66;4936334;29;20674;-85
2023/07/04 03:16:08;;;;;;;18.58;13.13;;;;;;;19.32;88.82;94838.31;4936632;29;20186;-84
2023/07/04 03:18:33;;;;;;;18.30;13.25;;;;;;;19.32;88.92;94827.63;4937144;29;20531;-84
2023/07/04 03:20:59;;;;;;;12.60;9.02;;;;;;;19.10;88.35;94791.31;4936804;29;20250;-84
2023/07/04 03:23:25;;;;;;;13.90;8.38;;;;;;;19.41;88.25;94834.03;4936867;29;20155;-85
2023/07/04 03:25:50;;;;;;;10.40;6.85;;;;;;;19.39;88.60;94841.50;4936828;29;20250;-82
2023/07/04 03:28:15;;;;;;;13.48;7.07;;;;;;;19.41;88.95;94828.69;4937089;29;20545;-82
2023/07/04 03:30:42;;;;;;;13.82;7.00;;;;;;;19.43;89.34;94826.56;4936821;29;20173;-82
2023/07/04 03:33:08;;;;;;;14.50;8.02;;;;;;;19.28;88.95;94779.31;4936838;29;20203;-85
2023/07/04 03:35:38;;;;;;;12.27;7.07;;;;;;;19.59;88.95;94825.53;4935348;29;20193;-85
2023/07/04 03:38:03;;;;;;;10.35;7.32;;;;;;;19.72;88.74;94822.31;4951350;29;20191;-86
2023/07/04 03:40:29;;;;;;;10.02;6.38;;;;;;;19.59;86.90;94796.97;4950419;29;20210;-85
2023/07/04 03:42:54;;;;;;;10.88;5.80;;;;;;;19.95;86.89;94842.34;4936183;29;20191;-86
2023/07/04 03:45:20;;;;;;;11.07;6.65;;;;;;;20.04;87.80;94840.72;4936249;29;20214;-86
2023/07/04 03:47:45;;;;;;;8.35;5.40;;;;;;;19.72;85.74;94789.47;4936421;29;20270;-86
2023/07/04 03:50:13;;;;;;;9.55;6.20;;;;;;;20.08;85.34;94836.44;4935680;29;20702;-84
2023/07/04 03:52:39;;;;;;;8.27;5.53;;;;;;;20.18;84.93;94846.31;4936335;29;20629;-84
2023/07/04 03:55:05;;;;;;;8.48;6.05;;;;;;;20.25;85.22;94849.50;4936354;29;20257;-84
2023/07/04 03:57:30;;;;;;;10.52;5.53;;;;;;;20.44;85.77;94855.09;4936845;29;20172;-84
2023/07/04 03:59:56;;;;;;;10.40;5.70;;;;;;;20.44;83.60;94837.19;4936758;29;20193;-84
2023/07/04 04:02:22;;;;;;;8.68;4.70;;;;;;;20.32;82.39;94809.94;4936159;29;20167;-84
2023/07/04 04:04:47;;;;;;;9.45;5.32;;;;;;;20.31;82.45;94797.63;4936187;29;20199;-84
2023/07/04 04:07:13;;;;;;;11.30;5.28;;;;;;;20.78;81.71;94858.72;4936191;29;20164;-84
2023/07/04 04:09:38;;;;;;;9.15;4.50;;;;;;;20.89;81.46;94854.13;4936287;29;20285;-83
2023/07/04 04:12:06;;;;;;;9.52;5.22;;;;;;;21.07;81.89;94854.31;4935946;29;20196;-84
2023/07/04 04:14:32;;;;;;;7.90;4.80;;;;;;;21.27;80.76;94869.50;4935802;29;20183;-84
2023/07/04 04:16:58;;;;;;;11.70;4.45;;;;;;;21.39;79.82;94872.63;4934618;29;20167;-84
2023/07/04 04:19:25;;;;;;;12.52;5.80;;;;;;;21.50;79.40;94872.56;4935937;29;20215;-84
2023/07/04 04:21:51;;;;;;;8.07;4.90;;;;;;;21.69;77.97;94890.38;4935770;29;20625;-84
2023/07/04 04:24:16;;;;;;;9.55;5.25;;;;;;;21.54;78.07;94836.06;4935815;29;20242;-84
2023/07/04 04:26:43;;;;;;;9.52;6.07;;;;;;;22.00;77.84;94882.09;4950421;29;20181;-81
2023/07/04 04:29:09;;;;;;;8.85;5.88;;;;;;;22.15;76.70;94885.44;4935423;29;20186;-83
2023/07/04 04:31:37;;;;;;;12.70;5.50;;;;;;;22.28;76.35;94884.00;4950269;29;20175;-82
2023/07/04 04:34:03;;;;;;;7.55;4.75;;;;;;;22.16;75.71;94848.69;4935287;29;20183;-84
2023/07/04 04:36:30;;;;;;;10.18;5.18;;;;;;;22.53;75.79;94897.16;4935436;29;20179;-84
2023/07/04 04:38:56;;;;;;;10.52;5.03;;;;;;;22.65;74.89;94899.47;4935474;29;20273;-84
2023/07/04 04:41:22;;;;;;;6.45;4.60;;;;;;;22.80;74.14;94895.81;4935509;29;20191;-85
2023/07/04 04:43:49;;;;;;;6.85;4.40;;;;;;;22.84;74.38;94870.78;4935404;29;20224;-84
2023/07/04 04:46:15;;;;;;;8.35;5.35;;;;;;;23.15;74.31;94894.59;4935538;29;20159;-85
2023/07/04 04:48:41;;;;;;;8.73;4.90;;;;;;;23.38;74.01;94907.19;4949984;29;20183;-83
2023/07/04 04:51:09;;;;;;;6.88;4.95;;;;;;;23.53;72.80;94893.56;4935304;29;20230;-85
2023/07/04 04:53:36;;;;;;;11.23;5.07;;;;;;;23.86;72.88;94897.09;4935210;29;20202;-84
2023/07/04 04:56:03;;;;;;;10.57;4.60;;;;;;;24.13;71.69;94904.44;4935073;29;20205;-85
2023/07/04 04:58:29;;;;;;;10.75;5.47;;;;;;;24.32;70.21;94899.06;4933772;29;20763;-84
2023/07/04 05:00:55;;;;;;;9.75;4.72;;;;;;;24.06;70.07;94839.47;4934911;29;20242;-84
2023/07/04 05:03:22;;;;;;;9.20;4.55;;;;;;;24.71;69.46;94885.16;4935046;29;20250;-85
2023/07/04 05:05:47;;;;;;;7.25;4.70;;;;;;;25.01;68.70;94865.72;4933797;29;20180;-85
2023/07/04 05:08:13;;;;;;;8.52;4.60;;;;;;;25.51;66.87;94890.78;4935043;29;20226;-84
2023/07/04 05:10:38;;;;;;;9.90;4.72;;;;;;;25.90;65.56;94905.59;4935093;29;20183;-84
2023/07/04 05:13:04;;;;;;;6.75;5.10;;;;;;;26.02;65.23;94869.97;4934911;29;20203;-85
2023/07/04 05:15:29;;;;;;;8.27;5.18;;;;;;;26.37;64.15;94861.00;4933742;29;20179;-85
2023/07/04 05:17:54;;;;;;;9.85;4.97;;;;;;;26.55;61.87;94840.28;4934987;29;20170;-85
2023/07/04 05:20:23;;;;;;;12.45;5.32;;;;;;;26.74;61.14;94835.41;4949613;29;20171;-85
2023/07/04 05:22:49;;;;;;;10.00;5.60;;;;;;;27.12;59.82;94846.53;4949562;29;20238;-85
2023/07/04 05:25:15;;;;;;;9.45;5.22;;;;;;;27.52;58.49;94852.59;4934833;29;20167;-85
2023/07/04 05:27:41;;;;;;;6.43;4.70;;;;;;;27.83;58.58;94855.19;4935120;29;20231;-86
2023/07/04 05:30:08;;;;;;;10.98;5.18;;;;;;;28.30;57.74;94863.41;4934803;29;20179;-85
2023/07/04 05:32:34;;;;;;;8.45;4.80;;;;;;;28.61;56.99;94849.66;4935047;29;20278;-85
2023/07/04 05:35:49;;;;;;;7.22;4.75;;;;;;;29.25;55.94;94883.63;4935043;29;20198;-85
2023/07/04 05:38:14;;;;;;;8.63;5.18;;;;;;;29.64;55.01;94879.75;4949488;29;20175;-85
2023/07/04 05:40:41;;;;;;;12.80;5.10;;;;;;;29.84;53.25;94863.81;4935003;29;20170;-86
2023/07/04 05:43:06;;;;;;;8.75;4.97;;;;;;;30.01;52.22;94888.13;4935007;29;20254;-86
2023/07/04 05:45:32;;;;;;;11.45;5.40;;;;;;;30.27;51.02;94894.09;4935131;29;20396;-85
2023/07/04 05:47:57;;;;;;;7.50;4.78;;;;;;;30.17;51.13;94875.50;4934662;29;20183;-86
2023/07/04 05:50:22;;;;;;;9.68;4.75;;;;;;;29.79;51.45;94844.97;4933273;29;20269;-86
2023/07/04 05:52:48;;;;;;;5.90;4.55;;;;;;;29.98;51.93;94895.00;4934438;29;20199;-86
2023/07/04 05:55:13;;;;;;;8.57;4.50;;;;;;;29.96;51.16;94901.88;4934444;29;20711;-86
2023/07/04 05:57:39;;;;;;;5.95;4.95;;;;;;;29.43;50.69;94856.44;4934655;29;20703;-85
2023/07/04 06:00:05;;;;;;;6.72;4.78;;;;;;;29.47;51.44;94851.94;4933267;29;20182;-85
2023/07/04 06:02:31;;;;;;;10.85;5.65;;;;;;;29.53;50.82;94832.41;4949222;29;20178;-84
2023/07/04 06:04:57;;;;;;;5.45;4.82;;;;;;;29.29;52.39;94829.53;4935146;29;20250;-85
2023/07/04 06:07:36;;;;;;;9.20;5.03;;;;;;;29.47;54.55;94862.81;4934460;29;20258;-86
2023/07/04 06:10:01;;;;;;;9.15;4.90;;;;;;;29.67;53.10;94834.06;4935076;29;20682;-86
2023/07/04 06:12:27;;;;;;;9.25;4.50;;;;;;;29.98;50.99;94854.28;4934242;29;20202;-85
2023/07/04 06:14:52;;;;;;;11.25;5.15;;;;;;;30.12;53.14;94862.13;4952606;29;20718;-86
2023/07/04 06:17:18;;;;;;;7.68;4.30;;;;;;;30.32;52.63;94891.19;4938022;29;20179;-86
2023/07/04 06:19:47;;;;;;;7.53;4.80;;;;;;;30.10;51.73;94847.31;4938115;29;20178;-86
2023/07/04 06:22:12;;;;;;;6.85;4.15;;;;;;;30.08;53.23;94844.91;4938272;29;20186;-86
2023/07/04 06:24:38;;;;;;;6.50;4.32;;;;;;;30.11;52.63;94851.59;4936599;29;20179;-86
2023/07/04 06:27:05;;;;;;;10.48;4.32;;;;;;;30.29;53.07;94886.41;4952685;29;20564;-85
2023/07/04 06:29:30;;;;;;;8.93;4.90;;;;;;;29.76;51.37;94849.16;4936570;29;20654;-86
2023/07/04 06:31:55;;;;;;;11.90;4.55;;;;;;;29.57;55.20;94846.94;4937512;29;20262;-86
2023/07/04 06:34:21;;;;;;;8.52;4.47;;;;;;;29.78;54.53;94873.25;4936419;29;20659;-86
2023/07/04 06:36:51;;;;;;;8.88;5.10;;;;;;;29.84;52.22;94855.66;4937496;29;20171;-85
2023/07/04 06:39:16;;;;;;;12.60;4.88;;;;;;;30.10;54.21;94886.09;4937846;29;20206;-87
2023/07/04 06:41:42;;;;;;;8.15;5.22;;;;;;;30.20;53.36;94863.97;4937672;29;20246;-88
2023/07/04 06:44:07;;;;;;;10.82;5.43;;;;;;;30.10;52.13;94839.16;4937692;29;20186;-90
2023/07/04 06:46:32;;;;;;;11.10;4.85;;;;;;;30.38;55.19;94881.69;4952443;29;20569;-90
2023/07/04 06:48:58;;;;;;;11.35;5.07;;;;;;;30.45;55.11;94872.19;4952363;29;20175;-86
2023/07/04 06:51:29;;;;;;;10.70;5.03;;;;;;;30.71;52.46;94895.25;4937606;29;20220;-82
2023/07/04 06:53:54;;;;;;;8.18;4.57;;;;;;;30.66;54.18;94884.63;4937622;29;20269;-86
2023/07/04 06:56:22;;;;;;;7.78;4.75;;;;;;;30.88;52.40;94893.47;4952077;29;20261;-85
2023/07/04 06:58:53;;;;;;;9.20;5.18;;;;;;;31.05;51.72;94890.53;4952112;29;20222;-86
2023/07/04 07:01:22;;;;;;;8.07;4.32;;;;;;;30.94;52.57;94845.91;4937450;29;20170;-85
2023/07/04 07:03:49;;;;;;;7.40;4.72;;;;;;;31.16;51.62;94877.31;4937578;29;20171;-85
2023/07/04 07:06:15;;;;;;;8.52;4.65;;;;;;;31.05;49.21;94855.97;4937559;29;20185;-87
2023/07/04 07:08:41;;;;;;;8.70;4.22;;;;;;;31.08;49.45;94882.53;4937448;29;20786;-86
2023/07/04 07:11:09;;;;;;;15.18;4.68;;;;;;;30.99;51.23;94886.47;4937634;29;20164;-84
2023/07/04 07:13:38;;;;;;;9.23;4.18;;;;;;;30.72;50.93;94883.25;4937075;29;20227;-84
2023/07/04 07:16:05;;;;;;;7.72;4.18;;;;;;;30.84;52.74;94885.22;4937799;29;20521;-87
2023/07/04 07:18:32;;;;;;;11.90;4.70;;;;;;;30.93;53.26;94869.56;4937308;29;20175;-84
2023/07/04 07:20:58;;;;;;;11.70;4.95;;;;;;;31.27;52.62;94879.25;4937236;29;20156;-84
2023/07/04 07:23:24;;;;;;;7.13;3.72;;;;;;;31.50;50.28;94888.50;4936908;29;20557;-85
2023/07/04 07:26:00;;;;;;;5.90;3.70;;;;;;;31.45;49.78;94887.97;4936844;29;20662;-90
2023/07/04 07:28:28;;;;;;;5.65;3.83;;;;;;;31.37;50.04;94867.91;4935585;29;20610;-81
2023/07/04 07:31:21;;;;;;;5.60;3.88;;;;;;;31.82;51.35;94894.97;4936839;29;20647;-82
2023/07/04 07:33:48;;;;;;;9.27;3.40;;;;;;;32.12;51.05;94898.13;4934667;29;20715;-81
2023/07/04 07:36:38;;;;;;;14.90;4.65;;;;;;;32.24;48.60;94897.34;4936666;29;20285;-90
2023/07/04 07:39:06;;;;;;;5.25;4.20;;;;;;;32.04;51.44;94874.56;4936987;29;20631;-89
2023/07/04 07:41:36;;;;;;;5.68;3.60;;;;;;;32.25;50.79;94901.66;4935782;29;20674;-84
2023/07/04 07:44:03;;;;;;;5.10;3.88;;;;;;;31.97;51.31;94846.31;4951143;29;20594;-86
2023/07/04 07:46:28;;;;;;;6.70;4.00;;;;;;;32.19;51.07;94878.50;4936222;29;20667;-84
2023/07/04 07:48:55;;;;;;;9.93;3.80;;;;;;;32.06;49.03;94879.66;4936190;29;20183;-83
2023/07/04 07:51:21;;;;;;;6.70;4.70;;;;;;;31.46;49.77;94868.56;4936187;29;20181;-86
2023/07/04 07:53:49;;;;;;;6.45;3.78;;;;;;;30.95;51.81;94842.84;4935343;29;20201;-91
2023/07/04 07:56:17;;;;;;;9.85;3.67;;;;;;;31.21;53.97;94894.22;4936802;29;20164;-86
2023/07/04 07:58:43;;;;;;;5.60;3.10;;;;;;;30.96;50.04;94849.06;4950972;29;20277;-90
2023/07/04 08:01:19;;;;;;;5.90;2.92;;;;;;;31.11;47.94;94890.03;4936234;29;20205;-91
2023/07/04 08:03:44;;;;;;;7.70;3.13;;;;;;;30.96;49.48;94887.16;4950829;29;20317;-87
2023/07/04 08:06:23;;;;;;;5.38;3.38;;;;;;;30.54;49.44;94843.00;4950612;29;20179;-86
2023/07/04 08:08:50;;;;;;;5.22;3.50;;;;;;;30.50;51.82;94852.94;4936058;29;20233;-88
2023/07/04 08:11:16;;;;;;;6.18;3.33;;;;;;;30.39;51.91;94888.72;4936494;29;20155;-88
2023/07/04 08:13:42;;;;;;;7.95;3.60;;;;;;;29.95;51.33;94829.69;4936226;29;20705;-86
2023/07/04 08:16:08;;;;;;;4.03;3.08;;;;;;;30.30;52.37;94866.25;4936090;29;20552;-87
2023/07/04 08:18:33;;;;;;;6.20;3.33;;;;;;;30.58;52.93;94882.78;4935969;29;20163;-88
2023/07/04 08:21:02;;;;;;;9.40;3.85;;;;;;;30.57;48.41;94855.94;4934547;29;20186;-88
2023/07/04 08:23:28;;;;;;;6.03;3.53;;;;;;;30.48;49.63;94882.38;4950488;29;20198;-88
2023/07/04 08:25:53;;;;;;;4.57;3.33;;;;;;;30.07;48.56;94831.66;4950231;29;20211;-88
2023/07/04 08:28:21;;;;;;;7.68;3.75;;;;;;;29.98;51.04;94881.44;4933978;29;20182;-88
2023/07/04 08:30:47;;;;;;;5.30;3.53;;;;;;;29.76;52.75;94826.63;4933371;29;20234;-87
2023/07/04 08:33:17;;;;;;;4.97;3.33;;;;;;;29.49;50.28;94769.06;4931793;29;20273;-88
2023/07/04 08:35:58;;;;;;;5.25;3.28;;;;;;;29.80;54.55;94873.72;4933107;29;20197;-87
2023/07/04 08:38:24;;;;;;;8.93;3.33;;;;;;;30.08;54.09;94868.56;4932135;29;20262;-88
2023/07/04 08:40:50;;;;;;;6.63;3.22;;;;;;;30.15;51.47;94828.88;4946659;29;20265;-87
2023/07/04 08:43:27;;;;;;;7.45;4.13;;;;;;;30.64;52.27;94875.19;4948398;29;20179;-86
2023/07/04 08:45:53;;;;;;;6.65;3.53;;;;;;;30.56;48.07;94848.91;4934686;29;20171;-85
2023/07/04 08:48:20;;;;;;;6.53;3.42;;;;;;;30.31;48.54;94808.06;4933589;29;20628;-87
2023/07/04 08:50:47;;;;;;;7.22;3.42;;;;;;;30.59;50.00;94849.03;4935054;29;20191;-87
2023/07/04 08:53:18;;;;;;;6.00;3.83;;;;;;;30.84;51.94;94868.09;4933549;29;20203;-86
2023/07/04 08:55:51;;;;;;;5.82;3.20;;;;;;;30.69;48.61;94824.13;4949620;29;20730;-89
2023/07/04 08:58:21;;;;;;;6.57;4.38;;;;;;;30.51;51.25;94792.03;4949665;29;20687;-87
2023/07/04 09:00:46;;;;;;;8.65;3.75;;;;;;;30.69;51.61;94820.63;4934845;29;20631;-88
2023/07/04 09:03:47;;;;;;;4.95;3.92;;;;;;;31.05;50.11;94857.88;4934300;29;20242;-86
2023/07/04 09:06:20;;;;;;;7.30;4.85;;;;;;;30.79;47.66;94798.41;4919432;29;20187;-85
2023/07/04 09:09:14;;;;;;;5.07;3.92;;;;;;;30.90;48.80;94798.75;4935159;29;20269;-86
2023/07/04 09:11:41;;;;;;;7.93;5.28;;;;;;;31.16;49.69;94828.34;4949821;29;20654;-88
2023/07/04 09:14:15;;;;;;;8.02;4.13;;;;;;;31.09;49.51;94851.47;4949536;29;20203;-83
2023/07/04 09:16:45;;;;;;;6.20;4.25;;;;;;;30.92;52.35;94819.03;4934429;29;20162;-87
2023/07/04 09:19:16;;;;;;;6.82;4.00;;;;;;;31.15;47.88;94859.38;4949733;29;20171;-87
2023/07/04 09:21:42;;;;;;;10.18;4.80;;;;;;;30.52;48.07;94804.53;4934992;29;20543;-90
2023/07/04 09:24:08;;;;;;;7.32;4.13;;;;;;;30.17;49.01;94813.03;4949807;29;20659;-88
2023/07/04 09:26:54;;;;;;;6.95;4.75;;;;;;;29.26;50.34;94798.44;4949956;29;20173;-88
2023/07/04 09:29:22;;;;;;;8.57;4.88;;;;;;;28.89;51.83;94838.03;4949004;29;20647;-86
2023/07/04 09:31:53;;;;;;;8.18;4.35;;;;;;;28.86;56.64;94789.13;4934408;29;20171;-87
2023/07/04 09:34:22;;;;;;;6.57;3.95;;;;;;;29.58;51.12;94843.06;4934340;29;20279;-85
2023/07/04 09:36:50;;;;;;;7.50;4.47;;;;;;;29.67;51.54;94840.28;4926880;29;20229;-86
2023/07/04 09:39:16;;;;;;;8.90;5.38;;;;;;;29.60;54.46;94791.97;4933364;29;20179;-85
2023/07/04 09:41:41;;;;;;;6.35;4.88;;;;;;;30.18;51.90;94843.72;4934168;29;20219;-88
2023/07/04 09:44:18;;;;;;;8.57;4.72;;;;;;;30.03;51.99;94801.66;4934257;29;20651;-87
2023/07/04 09:46:52;;;;;;;7.35;4.60;;;;;;;30.26;52.09;94802.88;4934448;29;20166;-87
2023/07/04 09:49:31;;;;;;;6.03;4.28;;;;;;;30.46;49.33;94811.25;4935850;29;20186;-86
2023/07/04 09:51:59;;;;;;;12.98;4.93;;;;;;;30.45;50.28;94823.25;4938371;29;20189;-86
2023/07/04 09:54:24;;;;;;;9.25;4.32;;;;;;;30.13;49.94;94784.94;4938176;29;20175;-86
2023/07/04 09:56:50;;;;;;;6.60;4.40;;;;;;;29.95;49.23;94765.31;4938013;29;20193;-86
2023/07/04 09:59:22;;;;;;;5.63;4.45;;;;;;;30.06;48.39;94770.31;4938188;29;20250;-85
2023/07/04 10:01:50;;;;;;;8.27;4.50;;;;;;;30.28;50.67;94835.13;4938640;29;20258;-85
2023/07/04 10:04:26;;;;;;;9.60;4.70;;;;;;;30.11;50.08;94829.84;4952452;29;20298;-85
2023/07/04 10:06:53;;;;;;;7.13;4.57;;;;;;;29.71;50.36;94784.22;4936858;29;20175;-86
2023/07/04 10:09:20;;;;;;;6.35;5.13;;;;;;;29.93;53.05;94821.84;4936652;29;20234;-86
2023/07/04 10:11:48;;;;;;;7.40;4.65;;;;;;;29.78;54.70;94786.38;4936836;29;20179;-86
2023/07/04 10:14:14;;;;;;;7.05;4.55;;;;;;;30.05;53.11;94818.41;4936603;29;20202;-86
2023/07/04 10:16:47;;;;;;;9.25;5.18;;;;;;;30.10;54.65;94814.72;4935615;29;20186;-86
2023/07/04 10:19:15;;;;;;;7.05;4.15;;;;;;;29.90;51.64;94756.56;4936306;29;20183;-86
2023/07/04 10:21:46;;;;;;;16.13;5.75;;;;;;;29.87;49.38;94777.03;4936270;29;20183;-85
2023/07/04 10:24:18;;;;;;;5.53;4.68;;;;;;;29.94;50.43;94809.09;4935178;29;20678;-87
2023/07/04 10:26:50;;;;;;;6.40;4.88;;;;;;;29.69;50.21;94799.25;4936094;29;20175;-86
2023/07/04 10:29:23;;;;;;;7.40;4.75;;;;;;;29.46;49.94;94767.03;4936098;29;20265;-86
2023/07/04 10:31:49;;;;;;;4.93;4.05;;;;;;;29.45;51.25;94775.50;4936117;29;20186;-86
2023/07/04 10:34:18;;;;;;;8.82;4.70;;;;;;;29.33;51.17;94746.34;4936000;29;20635;-86
2023/07/04 10:36:46;;;;;;;7.05;5.05;;;;;;;29.28;50.07;94743.84;4935997;29;20718;-86
2023/07/04 10:39:16;;;;;;;8.50;4.55;;;;;;;29.46;54.59;94772.47;4950824;29;20183;-87
2023/07/04 10:42:07;;;;;;;6.35;4.60;;;;;;;29.73;51.10;94798.25;4935997;29;20194;-86
2023/07/04 10:44:34;;;;;;;7.53;5.00;;;;;;;29.55;50.94;94751.47;4935782;29;20623;-86
2023/07/04 10:47:32;;;;;;;8.77;4.97;;;;;;;29.67;53.48;94758.06;4934724;29;20254;-86
2023/07/04 10:50:14;;;;;;;8.10;5.20;;;;;;;29.78;52.62;94759.25;4927816;29;20289;-87
2023/07/04 10:52:43;;;;;;;5.88;4.90;;;;;;;29.72;49.40;94742.38;4935615;29;20209;-87
2023/07/04 10:55:14;;;;;;;7.38;4.78;;;;;;;29.71;52.74;94748.94;4935652;29;20189;-87
2023/07/04 10:57:44;;;;;;;8.10;5.28;;;;;;;29.96;53.05;94791.34;4950720;29;20207;-87
2023/07/04 11:00:18;;;;;;;6.32;4.68;;;;;;;29.68;52.88;94721.66;4937146;29;20670;-87
2023/07/04 11:02:52;;;;;;;8.48;5.05;;;;;;;29.80;50.93;94749.63;4937988;29;20184;-86
2023/07/04 11:05:46;;;;;;;10.05;5.18;;;;;;;29.99;51.27;94779.03;4936503;29;20179;-87
2023/07/04 11:08:18;;;;;;;7.45;4.82;;;;;;;29.93;50.05;94772.19;4936248;29;20274;-89
2023/07/04 11:10:48;;;;;;;6.93;5.10;;;;;;;29.77;52.94;94772.00;4938546;29;20603;-88
2023/07/04 11:13:16;;;;;;;11.82;5.63;;;;;;;29.63;54.01;94750.59;4952779;29;20694;-87
2023/07/04 11:15:42;;;;;;;9.35;5.13;;;;;;;29.50;52.29;94734.59;4938229;29;20179;-86
2023/07/04 11:18:15;;;;;;;7.95;5.25;;;;;;;29.72;53.67;94764.09;4938274;29;20663;-86
2023/07/04 11:20:40;;;;;;;8.05;5.15;;;;;;;29.77;53.71;94758.44;4935850;29;20278;-86
2023/07/04 11:23:15;;;;;;;7.10;4.97;;;;;;;29.70;53.68;94736.47;4951028;29;20679;-86
2023/07/04 11:25:43;;;;;;;5.75;5.00;;;;;;;29.94;53.87;94752.06;4936122;29;20210;-87
2023/07/04 11:28:32;;;;;;;12.32;5.60;;;;;;;30.02;54.32;94746.53;4936254;29;20622;-87
2023/07/04 11:31:22;;;;;;;10.02;5.60;;;;;;;29.94;54.52;94746.63;4935791;29;20175;-87
2023/07/04 11:33:53;;;;;;;7.97;5.38;;;;;;;29.83;56.46;94738.13;4935982;29;20198;-87
2023/07/04 11:36:37;;;;;;;8.43;5.57;;;;;;;29.90;56.62;94748.44;4934927;29;20187;-86